Level: Generation 1 Easy 8
Medal times: 9.412 author, 10.400 gold, 11.300 silver (finish the level to receive the bronze medal).
2 laps. Author lap times: 4.400, 5.012

Global leaderboard:
country
|| online
|| |  time   date       time     player #rank    lap times
BG N  9.328s 2022-12-16 17:02 Spy Ninjas Army #9001  4.500,4.828
HU Y  9.328s 2022-12-16 17:45 IronWolf755 #9002  4.550,4.778
RU Y  9.328s 2022-12-17 06:43 UpGreeting33 #9003  4.500,4.828
EE N  9.328s 2022-12-17 09:25 Guest2199 #9004  4.483,4.845
AM Y  9.328s 2022-12-17 10:50 10IQ player #9005  4.466,4.862
GR Y  9.328s 2022-12-17 11:22 KostasW #9006  4.433,4.895
IQ Y  9.328s 2022-12-17 11:46 DARK #9007  4.416,4.912
DK Y  9.328s 2022-12-17 13:29 Aero #9008  4.483,4.845
BR N  9.328s 2022-12-17 22:21 Guest7188 #9009  4.483,4.845
TR N  9.328s 2022-12-18 06:34 SymptomaticDeni #9010  4.450,4.878
EG N  9.328s 2022-12-18 15:13 ImpliedGlance50 #9011  4.400,4.928
DK N  9.328s 2022-12-19 11:05 BoldWarchief495 #9012  4.500,4.828
JO Y  9.328s 2022-12-19 16:44 Mpappe7 #9013  4.400,4.928
BY Y  9.328s 2022-12-19 20:33 AwakeRadio6 #9014  4.400,4.928
HR Y  9.328s 2022-12-19 20:43 BabaCro22 #9015  4.433,4.895
NZ Y  9.328s 2022-12-19 23:18 H3ll0 #9016  4.483,4.845
SI Y  9.328s 2022-12-20 06:47 RandomSquid4608 #9017  4.450,4.878
HR Y  9.328s 2022-12-20 11:19 RundownBuffalo6 #9018  4.466,4.862
IE Y  9.328s 2022-12-20 21:33 Epic_Fish #9019  4.416,4.912
IN Y  9.328s 2022-12-20 23:03 Manik628 #9020  4.400,4.928
DK Y  9.328s 2022-12-21 06:44 David #9021  4.433,4.895
CH N  9.328s 2022-12-21 13:54 Giani #9022  4.433,4.895
HR Y  9.328s 2022-12-21 17:23 Nasix #9023  4.433,4.895
AL Y  9.328s 2022-12-21 19:48 Kl_pro2008 #9024  4.433,4.895
GE Y  9.328s 2022-12-21 20:08 bigjenny26 #9025  4.450,4.878
EE Y  9.328s 2022-12-22 00:10 Anderou #9026  4.416,4.912
LV Y  9.328s 2022-12-22 08:04 HanzyJr #9027  4.433,4.895
LT Y  9.328s 2022-12-22 14:34 Matufa #9028  4.433,4.895
LT Y  9.328s 2022-12-23 05:28 FreezingColonel #9029  4.533,4.795
UA Y  9.328s 2022-12-23 06:10 HELdY #9030  4.400,4.928
LT Y  9.328s 2022-12-23 06:53 Yourmom #9031  4.466,4.862
GR Y  9.328s 2022-12-23 14:00 SerDam #9032  4.450,4.878
SK Y  9.328s 2022-12-23 14:25 black guy #9033  4.466,4.862
RS Y  9.328s 2022-12-23 19:20 lafid #9034  4.416,4.912
AE Y  9.328s 2022-12-23 21:50 jadgamer17 #9035  4.466,4.862
EE Y  9.328s 2022-12-24 13:38 RMraul #9036  4.483,4.845
AT Y  9.328s 2022-12-24 20:43 Cookietrox #9037  4.416,4.912
GR Y  9.328s 2022-12-25 13:17 InterruptedHorr #9038  4.433,4.895
LT Y  9.328s 2022-12-25 14:24 Henrikax #9039  4.450,4.878
HU N  9.328s 2022-12-25 16:57 DespondentBoost #9040  4.483,4.845
MK N  9.328s 2023-01-04 02:39 dame #9041  4.483,4.845
US Y  9.328s 2023-01-04 03:48 Guest9283 #9042  4.500,4.828
IE Y  9.328s 2023-01-04 23:58 Guest4469 #9043  4.450,4.878
IE Y  9.328s 2023-01-07 18:01 ootan #9044  4.433,4.895
US N  9.328s 2023-02-04 00:51 Eclipse #9045  4.450,4.878
IN Y  9.328s 2023-02-08 14:23 YUVRAJ #9046  4.433,4.895
IL N  9.328s 2023-02-08 19:17 STRANGE MAN #9047  4.433,4.895
IL Y  9.328s 2023-02-09 08:07 Guest1146 #9048  4.433,4.895
US Y  9.328s 2023-02-09 12:56 gamerhellhound2 #9049  4.433,4.895
NL N  9.328s 2023-02-10 09:24 ImNoobVII #9050  4.466,4.862
NL N  9.328s 2023-02-10 20:34 Guest2023 #9051  4.533,4.795
DE Y  9.328s 2023-02-12 09:21 MinYoongi #9052  4.416,4.912
EE N  9.328s 2023-02-17 14:42 kapsar #9053  4.500,4.828
FR N  9.328s 2023-02-27 18:05 Thawnder #9054  4.500,4.828
TR N  9.328s 2023-03-04 10:15 Matiz #9055  4.416,4.912
US N  9.328s 2023-03-09 20:43 Tem #9056  4.416,4.912
US N  9.328s 2023-03-11 19:15 NOXINATOR3488 #9057  4.400,4.928
GB N  9.328s 2023-04-02 20:13 OfficerBroken #9058  4.466,4.862
GB N  9.328s 2023-04-02 21:25 CRXbinqVFX #9059  4.516,4.812
RO Y  9.328s 2023-04-07 08:37 stefane2007 #9060  4.433,4.895
GB Y  9.328s 2023-04-10 20:01 Guest7411 #9061  4.500,4.828
US Y  9.328s 2023-04-11 14:43 Lonely James #9062  4.450,4.878
US N  9.328s 2023-04-14 16:38 EnviableArea16 #9063  4.383,4.945
ES Y  9.328s 2023-04-18 10:22 elreydelashisha #9064  4.383,4.945
BE N  9.328s 2023-04-27 20:37 oct #9065  4.483,4.845
US Y  9.328s 2023-05-06 00:21 Goobster #9066  4.433,4.895
FR N  9.328s 2023-05-08 00:42 Vytiox72 #9067  4.400,4.928
IL N  9.328s 2023-05-11 05:56 god #9068  4.466,4.862
IT N  9.328s 2023-05-13 15:31 RegretfulLeader #9069  4.500,4.828
US Y  9.328s 2023-05-17 05:30 WinningEggman27 #9070  4.483,4.845
US Y  9.328s 2023-05-21 16:21 gape horn #9071  4.516,4.812
IL Y  9.328s 2023-05-25 09:22 oriking #9072  4.483,4.845
US Y  9.328s 2023-06-01 14:24 Cabernator #9073  4.450,4.878
DE Y  9.328s 2023-06-03 06:16 Repli98 #9074  4.416,4.912
AU Y  9.328s 2023-06-03 08:21 Guest6278 #9075  4.383,4.945
NL Y  9.328s 2023-06-05 17:31 Cocmelon #9076  4.550,4.778
MX Y  9.328s 2023-06-12 14:23 Guest3173 #9077  4.516,4.812
JO Y  9.328s 2023-06-25 09:05 DabetyJ #9078  4.450,4.878
US Y  9.328s 2023-07-01 04:49 Him #9079  4.500,4.828
US Y  9.328s 2023-07-01 16:49 Moondust #9080  4.366,4.962
AU Y  9.328s 2023-07-02 09:22 realsaadgaming2 #9081  4.450,4.878
GB Y  9.328s 2023-07-11 14:38 Jaylen #9082  4.500,4.828
CA Y  9.328s 2023-07-11 15:55 god #9083  4.416,4.912
US Y  9.328s 2023-07-13 00:08 Kaleb #9084  4.450,4.878
GB N  9.328s 2023-07-19 15:33 Iberjib #9085  4.433,4.895
PL Y  9.328s 2023-07-23 14:03 AMTHE1WHOKNOCKS #9086  4.500,4.828
NL Y  9.328s 2023-08-05 08:10 Guest2508 #9087  4.450,4.878
RS Y  9.328s 2023-08-05 08:37 69 #9088  4.466,4.862
GB Y  9.328s 2023-08-05 10:21 Fallen #9089  4.450,4.878
LV Y  9.328s 2023-08-05 11:25 loopixel #9090  4.433,4.895
US Y  9.328s 2023-08-05 19:08 Surge #9091  4.383,4.945
SE Y  9.328s 2023-08-05 19:49 yovuo #9092  4.416,4.912
GB N  9.328s 2023-08-06 11:48 indighost87 #9093  4.433,4.895
SE N  9.328s 2023-08-08 13:37 Salle #9094  4.483,4.845
IN Y  9.328s 2023-08-09 13:41 ARYAVGOD #9095  4.433,4.895
BE Y  9.328s 2023-08-10 05:42 Manthis #9096  4.366,4.962
CA Y  9.328s 2023-08-13 00:07 specne #9097  4.466,4.862
GB Y  9.328s 2023-08-18 16:09 Pajuna #9098  4.383,4.945
US Y  9.328s 2023-08-21 16:59 licpg9 #9099  4.483,4.845
US Y  9.328s 2023-09-05 23:49 Shadow #9100  4.466,4.862
CA Y  9.328s 2023-09-07 11:38 SharpestCompass #9101  4.416,4.912
SK Y  9.328s 2023-09-17 06:37 speed #9102  4.433,4.895
CA N  9.328s 2023-09-27 17:09 TheSlqyer #9103  4.416,4.912
AE Y  9.328s 2023-09-30 11:37 Fotolicious #9104  4.466,4.862
DE Y  9.328s 2023-10-03 08:15 JiniretSkz #9105  4.550,4.778
US N  9.328s 2023-10-07 03:47 LongestCopyrigh #9106  4.500,4.828
NL N  9.328s 2023-10-07 15:13 Guest9529 #9107  4.533,4.795
NL Y  9.328s 2023-10-11 14:34 pookie #9108  4.433,4.895
FR N  9.328s 2023-10-15 13:28 nyls #9109  4.383,4.945
ES N  9.328s 2023-10-17 21:40 DarkRex #9110  4.416,4.912
TR Y  9.328s 2023-11-02 04:37 Walxt #9111  4.433,4.895
US Y  9.328s 2023-11-03 15:31 mr onion #9112  4.483,4.845
CA Y  9.328s 2023-11-12 23:13 catzilla #9113  4.516,4.812
SE Y  9.328s 2023-11-25 06:52 Cacapoopoo #9114  4.500,4.828
US Y  9.328s 2023-12-03 21:55 Adickted2Weed #9115  4.466,4.862
US N  9.328s 2023-12-10 22:58 Monster34529 #9116  4.466,4.862
FR Y  9.328s 2023-12-13 15:59 Tyhbz #9117  4.433,4.895
GB Y  9.328s 2023-12-14 21:20 DXShockz #9118  4.366,4.962
AU Y  9.328s 2023-12-16 13:37 Mickalisawesome #9119  4.600,4.728
GB Y  9.328s 2023-12-17 10:44 DarkMagic #9120  4.433,4.895
NZ Y  9.328s 2023-12-18 06:26 Bad #9121  4.416,4.912
US Y  9.328s 2023-12-19 17:52 Tehpias #9122  4.450,4.878
NL N  9.328s 2023-12-21 22:34 meneerRvE #9123  4.500,4.828
US Y  9.328s 2023-12-27 22:49 goose #9124  4.450,4.878
PL Y  9.328s 2024-01-05 11:52 InfamousHollow5 #9125  4.483,4.845
CA N  9.328s 2024-01-06 07:05 BlackWHERE #9126  4.450,4.878
US Y  9.328s 2024-01-06 23:15 GGLOSER #9127  4.416,4.912
US Y  9.328s 2024-01-07 22:26 Menn27 #9128  4.400,4.928
BY Y  9.328s 2024-01-19 10:22 glebbiZet #9129  4.516,4.812
RO Y  9.328s 2024-02-03 09:05 °𝟛Ʌ爪° #9130  4.483,4.845
SE N  9.328s 2024-02-03 10:50 alvinnnnnnn #9131  4.433,4.895
BE Y  9.328s 2024-02-14 05:48 Louxit #9132  4.450,4.878
AU N  9.328s 2024-02-16 07:28 Duck4000 #9133  4.433,4.895
CA Y  9.328s 2024-02-18 02:40 BOBBOBBY #9134  4.483,4.845
LV Y  9.328s 2024-02-24 20:14 godzombies554 #9135  4.433,4.895
US N  9.328s 2024-03-01 21:04 Guest8860 #9136  4.433,4.895
US N  9.328s 2024-03-02 02:01 HospitableMainl #9137  4.450,4.878
HR N  9.328s 2024-03-02 23:13 -_- #9138  4.350,4.978
US Y  9.328s 2024-03-03 19:54 GenericName #9139  4.450,4.878
IT Y  9.328s 2024-03-07 13:28 DajeLazio #9140  4.516,4.812
US Y  9.328s 2024-03-07 19:57 diorr #9141  4.450,4.878
US Y  9.328s 2024-03-12 21:08 Guest2309 #9142  4.450,4.878
US N  9.328s 2024-03-18 08:46 Zeee #9143  4.400,4.928
US Y  9.328s 2024-03-23 00:41 3128 #9144  4.383,4.945
HR Y  9.328s 2024-04-06 06:48 Bxzhitr #9145  4.400,4.928
US Y  9.328s 2024-04-06 15:17 Bru #9146  4.433,4.895
CA Y  9.328s 2024-05-05 04:59 Skibidy #9147  4.400,4.928
BR Y  9.328s 2024-05-12 16:30 Castlevania #9148  4.383,4.945
US Y  9.328s 2024-05-14 17:07 TheBlackOstrich #9149  4.466,4.862
CA Y  9.328s 2024-05-31 15:26 Joemama #9150  4.416,4.912
CR Y  9.328s 2024-06-01 00:18 Taimuresu #9151  4.433,4.895
SE N  9.328s 2024-06-01 18:35 Ej10 sweden #9152  4.483,4.845
BG Y  9.328s 2024-06-07 15:03 Ted0x #9153  4.383,4.945
PH Y  9.328s 2024-06-12 11:00 Shinjuso #9154  4.416,4.912
AR N  9.328s 2024-07-19 16:53 fred #9155  4.450,4.878
US Y  9.328s 2024-07-23 07:33 AmAllpha #9156  4.416,4.912
US N  9.328s 2024-07-28 22:45 🙈🙉🙈 #9157  4.466,4.862
SE N  9.328s 2024-08-04 06:50 Darko #9158  4.483,4.845
ZA Y  9.328s 2024-08-07 13:17 CrispyRascal18 #9159  4.433,4.895
IT Y  9.328s 2024-08-07 13:22 Guest8612 #9160  4.466,4.862
US Y  9.328s 2024-08-13 19:05 frozeninhaler9 #9161  4.450,4.878
NL Y  9.328s 2024-08-16 14:10 MBK #9162  4.433,4.895
US N  9.328s 2024-09-12 01:36 Connor LeBlanc #9163  4.400,4.928
US N  9.328s 2024-09-12 16:15 Guest3946 #9164  4.466,4.862
FI N  9.328s 2024-09-18 06:01 Neegeri #9165  4.500,4.828
CA N  9.328s 2024-09-18 19:12 ibuprofen #9166  4.433,4.895
BY N  9.328s 2024-10-04 10:53 L1nkin #9167  4.483,4.845
PL N  9.328s 2024-10-10 17:42 Snowx #9168  4.466,4.862
UA N  9.328s 2024-10-21 11:34 вова підор єбаний син шлюхи #9169  4.400,4.928
US N  9.328s 2024-10-27 16:59 shichirigahama 😽 #9170  4.450,4.878
IL N  9.328s 2024-11-21 13:02 malachitr7 #9171  4.433,4.895
FR N  9.328s 2024-11-23 20:46 Ewan #9172  4.416,4.912
NL N  9.328s 2024-11-24 18:45 Wietje #9173  4.416,4.912
FR N  9.328s 2024-11-29 15:58 bonjour #9174  4.383,4.945
DE N  9.328s 2024-12-17 12:35 GamingShade #9175  4.466,4.862
LU N  9.328s 2024-12-23 17:15 ……. #9176  4.483,4.845
NL N  9.328s 2025-01-19 13:29 Douglassss #9177  4.416,4.912
US N  9.328s 2025-02-06 18:52 Mostar #9178  4.433,4.895
SE N  9.328s 2025-02-27 18:26 Freemountain #9179  4.400,4.928
DE N  9.328s 2025-02-28 14:53 Moti #9180  4.383,4.945
CA Y  9.328s 2025-04-21 00:49 michmich #9181  4.450,4.878
NL N  9.328s 2025-05-02 12:52 Jeroen89 #9182  4.483,4.845
IL Y  9.328s 2025-05-10 15:33 neilvi #9183  4.433,4.895
FR N  9.328s 2025-05-13 17:21 antoinerod23 #9184  4.433,4.895
EE N  9.328s 2025-05-25 19:30 sitanikerdis #9185  4.433,4.895
AQ N  9.328s 2025-07-20 03:49 norik #9186  4.550,4.778
DE N  9.328s 2025-10-24 13:11 Jubp #9187  4.433,4.895
JP Y  9.328s 2025-12-22 14:36 Tq #9188  4.450,4.878
GB N  9.328s 2025-12-26 16:23 curious #9189  4.483,4.845
US Y  9.328s 2026-01-06 02:45 THESMALLBIGSMALL #9190  4.483,4.845
AT N  9.328s 2026-01-17 11:29 Guest5679 #9191  4.516,4.812
US N  9.328s 2026-01-21 00:21 em:3 #9192  4.366,4.962
DE N  9.328s 2026-01-28 18:40 CFI0 #9193  4.416,4.912
JP Y  9.328s 2026-02-09 05:58 naka #9194  4.500,4.828
GB N  9.328s 2026-02-10 01:03 Guest6627 #9195  4.400,4.928
JP N  9.328s 2026-02-11 10:49 Zetsu #9196  4.416,4.912
FR Y  9.328s 2026-02-11 11:51 hugo #9197  4.533,4.795
CA Y  9.328s 2026-02-13 01:17 MasterfulSpecta #9198  4.500,4.828
GR Y  9.328s 2026-02-13 10:31 huskypatata #9199  4.466,4.862
US Y  9.328s 2026-02-17 19:28 rui. #9200  4.483,4.845
US Y  9.328s 2026-02-20 23:03 Bananaman #9201  4.550,4.778
CH N  9.328s 2026-02-25 13:47 OBERKING #9202  4.466,4.862
FR Y  9.328s 2026-03-03 19:59 Kamer19 #9203  4.516,4.812
US Y  9.328s 2026-03-08 09:49 narwhale's horn #9204  4.450,4.878
LB Y  9.328s 2026-03-09 01:32 malik #9205  4.483,4.845
JP Y  9.328s 2026-03-15 18:40 kidcut #9206  4.483,4.845
FR Y  9.328s 2026-03-17 01:55 Vairon #9207  4.466,4.862
US Y  9.328s 2026-03-22 19:19 Guest9327 #9208  4.450,4.878
US Y  9.328s 2026-03-23 20:26 idk071 #9209  4.516,4.812
US Y  9.328s 2026-03-26 01:43 Brian #9210  4.450,4.878
IL Y  9.328s 2026-03-27 23:04 Alma4444 #9211  4.466,4.862
FR N  9.328s 2026-04-01 11:34 Garratonku #9212  4.500,4.828
US Y  9.328s 2026-04-03 16:08 SKZ #9213  4.500,4.828
FR Y  9.328s 2026-04-04 12:56 EcoStera #9214  4.483,4.845
HR Y  9.328s 2026-04-04 18:28 Rudex55 #9215  4.433,4.895
JP Y  9.328s 2026-04-08 08:56 ghostsan #9216  4.483,4.845
UA Y  9.328s 2026-04-08 18:22 SobakeN35225 #9217  4.516,4.812
BY N  9.328s 2026-04-13 08:26 okminka #9218  4.500,4.828
BE N  9.328s 2026-04-20 21:51 Robaintje #9219  4.466,4.862
FO Y  9.328s 2026-04-27 14:35 hEnI #9220  4.433,4.895
FR N  9.328s 2026-04-30 19:53 Jeageer #9221  4.466,4.862
PT Y  9.328s 2026-05-03 18:35 cacobaco #9222  4.433,4.895
PL Y  9.328s 2026-05-05 21:52 nestle #9223  4.500,4.828
CA Y  9.328s 2026-05-06 15:42 oCroco #9224  4.416,4.912
JP N  9.328s 2026-05-07 06:21 omochiBS #9225  4.433,4.895
US Y  9.328s 2026-05-07 20:58 Axofoz02 #9226  4.450,4.878
US Y  9.328s 2026-05-07 22:40 BeatYa53 #9227  4.500,4.828
US Y  9.328s 2026-05-24 18:13 dildoscienceman #9228  4.483,4.845
NO Y  9.328s 2026-05-30 08:03 Monkey1ER #9229  4.416,4.912
NL Y  9.328s 2026-05-31 22:41 floris. #9230  4.450,4.878
NL Y  9.328s 2026-06-05 15:05 sokein #9231  4.516,4.812
ES Y  9.328s 2026-06-07 20:37 TravIsHere #9232  4.500,4.828
CY Y  9.328s 2026-06-08 19:57 gvnx #9233  4.466,4.862
CA Y  9.328s 2026-06-10 13:33 Algfish31 #9234  4.466,4.862
US N  9.328s 2026-06-12 22:00 penis jockey™ #9235  4.400,4.928
JP Y  9.328s 2026-06-16 06:16 chomolungma #9236  4.433,4.895
FR Y  9.328s 2026-06-20 14:56 mehdi098 #9237  4.416,4.912
HR N  9.328s 2026-06-21 13:33 debeladegencina #9238  4.466,4.862
SE N  9.328s 2026-06-28 10:28 NoelBoel1 #9239  4.450,4.878
US Y  9.328s 2026-07-06 05:52 ace #9240  4.450,4.878
AT Y  9.328s 2026-07-06 21:00 Guest4651 #9241  4.450,4.878
AU Y  9.328s 2026-07-09 01:22 Guest9397 #9242  4.516,4.812
US Y  9.328s 2026-07-10 21:49 ybbetter #9243  4.466,4.862
US Y  9.328s 2026-07-14 00:32 Dylanbeff #9244  4.500,4.828
GB Y  9.328s 2026-07-23 19:25 Jmurphy466 #9245  4.466,4.862
FR N  9.328s 2026-07-28 02:52 IHasYou #9246  4.483,4.845
US Y  9.328s 2026-07-29 05:04 gschitty #9247  4.416,4.912
VN N  9.329s 2025-03-11 08:30 Neco #9248  4.433,4.896
FI Y  9.330s 2022-12-16 08:53 Rik8 #9249  4.450,4.880
CH N  9.330s 2022-12-22 17:20 Andy #9250  4.350,4.980
RS Y  9.330s 2024-02-10 14:57 Guest8560 #9251  4.433,4.897
BR N  9.330s 2024-12-02 11:20 Pode calvo #9252  4.416,4.914
US N  9.330s 2025-11-07 02:18 holden #9253  4.416,4.914
BR Y  9.343s 2024-04-07 15:53 LippeKeven #9254  4.416,4.927
LT N  9.343s 2024-11-26 08:47 DemomanTf2Main #9255  4.483,4.860
BR Y  9.344s 2022-12-15 21:48 ClaudioVictorLi #9256  4.416,4.928
ID N  9.344s 2022-12-21 05:34 APALOMZ #9257  4.433,4.911
LT Y  9.344s 2022-12-24 15:24 EpicGamer #9258  4.500,4.844
AU Y  9.344s 2023-01-04 01:16 w pika #9259  4.466,4.878
IT Y  9.344s 2023-02-10 14:49 Xxk6496xX #9260  4.450,4.894
GB Y  9.344s 2023-02-12 12:51 JihadiJohn69 #9261  4.466,4.878
AT N  9.344s 2023-03-17 13:21 TRFP #9262  4.483,4.861
US N  9.344s 2023-05-06 09:07 DMoney2000 #9263  4.516,4.828
US Y  9.344s 2023-05-13 17:11 gsbrayden #9264  4.416,4.928
CA N  9.344s 2023-08-06 06:26 FL Yoho #9265  4.350,4.994
BR N  9.344s 2023-12-02 15:01 VingadorB2 #9266  4.450,4.894
US Y  9.345s 2022-09-07 03:34 deleted user #9267  4.433,4.912
NL Y  9.345s 2022-09-07 08:30 Guest7090 #9268  4.500,4.845
FR Y  9.345s 2022-09-07 10:08 Baguette Man #9269  4.466,4.879
US Y  9.345s 2022-09-07 12:24 Walter White #9270  4.450,4.895
BG Y  9.345s 2022-09-07 12:32 kotka #9271  4.500,4.845
US Y  9.345s 2022-10-11 00:36 Guest1318 #9272  4.466,4.879
AU Y  9.345s 2022-10-11 02:07 Thebigclipz #9273  4.516,4.829
US Y  9.345s 2022-10-11 03:49 jizo #9274  4.433,4.912
PL N  9.345s 2022-10-11 06:29 gingy #9275  4.383,4.962
RU N  9.345s 2022-10-11 08:56 ogmaksutka #9276  4.466,4.879
HR Y  9.345s 2022-12-07 06:26 Lela #9277  4.533,4.812
CH Y  9.345s 2022-12-07 06:59 theo #9278  4.400,4.945
IL Y  9.345s 2022-12-07 08:02 Zuber #9279  4.400,4.945
CH Y  9.345s 2022-12-07 10:04 Janik #9280  4.533,4.812
BY Y  9.345s 2022-12-07 10:11 Guest6206 #9281  4.433,4.912
IL Y  9.345s 2022-12-07 10:58 Kofman #9282  4.416,4.929
VN Y  9.345s 2022-12-07 11:32 Trai-pro #9283  4.466,4.879
LT Y  9.345s 2022-12-07 11:35 GamingNinjiey12 #9284  4.466,4.879
DZ Y  9.345s 2022-12-07 16:59 3z #9285  4.450,4.895
IQ Y  9.345s 2022-12-07 17:09 AHMEDHAYDER25cG #9286  4.433,4.912
RS Y  9.345s 2022-12-07 17:53 acaaaa #9287  4.433,4.912
LT Y  9.345s 2022-12-07 21:11 Hawaii #9288  4.500,4.845
BG Y  9.345s 2022-12-07 22:00 Guest8633 #9289  4.500,4.845
MX Y  9.345s 2022-12-08 00:11 DiosDerek #9290  4.483,4.862
IL Y  9.345s 2022-12-08 06:52 HonorablePug487 #9291  4.483,4.862
RS Y  9.345s 2022-12-08 06:57 NihilisticShip8 #9292  4.483,4.862
IL Y  9.345s 2022-12-08 08:29 NitWinner #9293  4.416,4.929
CH Y  9.345s 2022-12-08 09:07 Guest7331 #9294  4.500,4.845
IL N  9.345s 2022-12-08 10:16 Guest6968 #9295  4.450,4.895
MO Y  9.345s 2022-12-08 12:50 AlexCEPM #9296  4.483,4.862
BH Y  9.345s 2022-12-08 15:39 digger #9297  4.533,4.812
NZ Y  9.345s 2022-12-08 18:36 Hen8dawg #9298  4.433,4.912
GR N  9.345s 2022-12-08 20:33 magocel1 #9299  4.400,4.945
RU Y  9.345s 2022-12-09 05:51 Krasin #9300  4.500,4.845
HR Y  9.345s 2022-12-09 06:40 chinese guy #9301  4.400,4.945
AT N  9.345s 2022-12-09 07:58 Frosty_zocktV #9302  4.483,4.862
KZ N  9.345s 2022-12-09 08:13 Guest2371 #9303  4.466,4.879
SI Y  9.345s 2022-12-09 08:46 JanP2007 #9304  4.483,4.862
TR Y  9.345s 2022-12-09 09:01 babakralreiz #9305  4.483,4.862
HU Y  9.345s 2022-12-09 09:15 AronZad #9306  4.450,4.895
SA N  9.345s 2022-12-09 09:21 ObstreperousDis #9307  4.416,4.929
HR Y  9.345s 2022-12-09 11:53 Dabarinko #9308  4.450,4.895
BY Y  9.345s 2022-12-09 13:05 29maxim #9309  4.400,4.945
SK Y  9.345s 2022-12-09 14:44 damian #9310  4.466,4.879
BG Y  9.345s 2022-12-09 14:46 vikYt #9311  4.500,4.845
CH Y  9.345s 2022-12-09 14:52 TheFlyingBat #9312  4.550,4.795
IL Y  9.345s 2022-12-09 17:02 superhaber #9313  4.416,4.929
IL Y  9.345s 2022-12-09 19:11 Daddy #9314  4.433,4.912
FI Y  9.345s 2022-12-09 21:50 Muroboy #9315  4.466,4.879
HU Y  9.345s 2022-12-09 22:16 free_kies #9316  4.466,4.879
NZ Y  9.345s 2022-12-10 02:51 Peysoh #9317  4.433,4.912
SK Y  9.345s 2022-12-10 05:50 NatalScript14 #9318  4.433,4.912
SI Y  9.345s 2022-12-10 09:08 itsrokplayz #9319  4.500,4.845
IS N  9.345s 2022-12-10 10:47 Birkir11 #9320  4.516,4.829
RU Y  9.345s 2022-12-10 10:55 DOGPAUNTS #9321  4.500,4.845
KR Y  9.345s 2022-12-10 11:24 Guest6397 #9322  4.433,4.912
IL N  9.345s 2022-12-10 12:51 gamerbruh #9323  4.416,4.929
HU Y  9.345s 2022-12-10 14:16 Pulsee #9324  4.483,4.862
RU N  9.345s 2022-12-10 14:54 EmotiveValley42 #9325  4.433,4.912
SG Y  9.345s 2022-12-11 01:07 Guest4795 #9326  4.466,4.879
CL Y  9.345s 2022-12-11 02:02 Sebii #9327  4.450,4.895
IE Y  9.345s 2022-12-11 13:48 naoisemyson24 #9328  4.466,4.879
AE Y  9.345s 2022-12-11 14:22 didnt ask #9329  4.500,4.845
IL Y  9.345s 2022-12-11 16:01 HypnoticZombie1 #9330  4.483,4.862
HU Y  9.345s 2022-12-11 20:49 csicsecsicsoka #9331  4.450,4.895
LA N  9.345s 2022-12-11 23:25 Nintendough555 #9332  4.500,4.845
TR N  9.345s 2022-12-12 05:39 Gatproq #9333  4.466,4.879
IE N  9.345s 2022-12-12 10:29 Bozo #9334  4.466,4.879
AL Y  9.345s 2022-12-12 11:11 Riad #9335  4.483,4.862
CW Y  9.345s 2022-12-12 15:07 kasa di e kacho #9336  4.450,4.895
PR Y  9.345s 2022-12-13 02:20 BasketBOIIIII #9337  4.533,4.812
AT Y  9.345s 2022-12-13 09:44 SlowFart #9338  4.466,4.879
AT Y  9.345s 2022-12-13 12:52 Nico Brown 003 #9339  4.433,4.912
BA Y  9.345s 2022-12-13 15:15 ayda97 #9340  4.433,4.912
RU N  9.345s 2022-12-13 19:38 Guest3838 #9341  4.500,4.845
AR Y  9.345s 2022-12-13 21:41 ExactingChin12 #9342  4.466,4.879
HR N  9.345s 2022-12-14 17:22 Capitall #9343  4.466,4.879
RS N  9.345s 2022-12-14 22:20 RippedCommandan #9344  4.433,4.912
GR Y  9.345s 2022-12-15 06:38 Romariondretsa #9345  4.500,4.845
LV Y  9.345s 2022-12-15 07:18 raitis #9346  4.566,4.779
SI Y  9.345s 2022-12-15 12:02 Guest2549 #9347  4.550,4.795
HU Y  9.345s 2022-12-15 19:52 floria #9348  4.466,4.879
RU Y  9.345s 2022-12-16 02:39 Lol10007 #9349  4.550,4.795
FI Y  9.345s 2022-12-16 06:14 Nekrutappaja #9350  4.483,4.862
BG Y  9.345s 2022-12-16 09:27 Dan203ska #9351  4.516,4.829
FI Y  9.345s 2022-12-16 17:01 zSponge #9352  4.433,4.912
BR Y  9.345s 2022-12-16 17:43 ReflexSalesman1 #9353  4.450,4.895
PH Y  9.345s 2022-12-17 08:55 Jank #9354  4.483,4.862
DK Y  9.345s 2022-12-17 14:25 me #9355  4.466,4.879
LV Y  9.345s 2022-12-18 06:37 Vxoti #9356  4.433,4.912
DK Y  9.345s 2022-12-18 09:01 Guest6145 #9357  4.450,4.895
AL Y  9.345s 2022-12-18 12:59 diname #9358  4.516,4.829
SI Y  9.345s 2022-12-18 14:40 BBQ Barbika #9359  4.433,4.912
FI Y  9.345s 2022-12-18 15:40 SaddestCaptive1 #9360  4.450,4.895
EE Y  9.345s 2022-12-20 04:56 Guest1212 #9361  4.416,4.929
DK N  9.345s 2022-12-20 13:18 AlfrxdTrp #9362  4.450,4.895
AR Y  9.345s 2022-12-20 16:25 Jo4coX #9363  4.416,4.929
LT Y  9.345s 2022-12-21 08:50 cbb #9364  4.450,4.895
NC N  9.345s 2022-12-21 10:55 j2isjlzjqozkiso #9365  4.416,4.929
DK Y  9.345s 2022-12-21 12:12 FightingColony2 #9366  4.433,4.912
RS N  9.345s 2022-12-22 07:59 Guest2665 #9367  4.450,4.895
GR Y  9.345s 2022-12-22 17:32 hgamerclan #9368  4.516,4.829
EE Y  9.345s 2022-12-22 19:31 Top_Lauri #9369  4.550,4.795
HR Y  9.345s 2022-12-23 07:14 AveragePanda23 #9370  4.483,4.862
SK N  9.345s 2022-12-23 10:15 Bob vs kok #9371  4.516,4.829
RS Y  9.345s 2022-12-23 11:52 DictatorialInfa #9372  4.433,4.912
GR Y  9.345s 2022-12-23 12:53 ExoPro #9373  4.450,4.895
LT N  9.345s 2022-12-23 15:18 Extra gamer #9374  4.450,4.895
TR Y  9.345s 2022-12-23 18:28 Adome #9375  4.450,4.895
LT Y  9.345s 2022-12-24 19:28 CuteDiction10 #9376  4.416,4.929
NZ N  9.345s 2022-12-24 21:46 Dregisville #9377  4.500,4.845
HR Y  9.345s 2022-12-25 17:22 pilepro #9378  4.450,4.895
IN Y  9.345s 2022-12-25 19:01 Guest8008 #9379  4.400,4.945
NZ N  9.345s 2022-12-25 23:59 ImportantGnome9 #9380  4.433,4.912
BY Y  9.345s 2022-12-26 07:13 kruroi chelllik #9381  4.466,4.879
UA Y  9.345s 2022-12-26 12:08 Tymka6668 #9382  4.400,4.945
EE Y  9.345s 2022-12-26 15:58 MegaMees3 #9383  4.400,4.945
BR Y  9.345s 2022-12-26 18:07 NeonBRvini #9384  4.450,4.895
CH N  9.345s 2022-12-27 17:03 Alssio #9385  4.366,4.979
HR Y  9.345s 2022-12-27 20:34 ndx  josip #9386  4.433,4.912
BR Y  9.345s 2022-12-29 01:35 vinicius #9387  4.400,4.945
US N  9.345s 2023-01-04 02:43 Vxnillaz #9388  4.416,4.929
AT Y  9.345s 2023-02-04 02:10 frvqzVI #9389  4.500,4.845
IL Y  9.345s 2023-02-05 20:24 honka honka #9390  4.433,4.912
FI Y  9.345s 2023-02-07 16:23 matez #9391  4.466,4.879
AT Y  9.345s 2023-02-07 22:38 Skyracer 47 #9392  4.466,4.879
US Y  9.345s 2023-02-09 12:55 CEAHAWKS #9393  4.400,4.945
UA Y  9.345s 2023-02-09 15:21 Tolyanovix #9394  4.533,4.812
ID Y  9.345s 2023-02-10 02:14 xNaspy #9395  4.500,4.845
PT Y  9.345s 2023-02-11 09:10 TBLOU #9396  4.366,4.979
KR N  9.345s 2023-03-05 18:13 Trollgak #9397  4.400,4.945
DE N  9.345s 2023-03-09 20:26 Psydonixx #9398  4.400,4.945
DE N  9.345s 2023-03-10 10:51 NeedlessOoze869 #9399  4.466,4.879
JO N  9.345s 2023-03-16 20:54 Ela3eeb21 #9400  4.450,4.895
ES N  9.345s 2023-03-19 13:48 braiam2011 #9401  4.433,4.912
IT N  9.345s 2023-03-26 16:38 PearlWarden7968 #9402  4.516,4.829
PL Y  9.345s 2023-04-04 07:02 FreePlacki #9403  4.400,4.945
BG N  9.345s 2023-04-06 10:07 Stanley Kekenov #9404  4.433,4.912
GB Y  9.345s 2023-04-10 20:24 Toast #9405  4.400,4.945
GB Y  9.345s 2023-04-17 13:52 Guest6469 #9406  4.483,4.862
US Y  9.345s 2023-04-22 15:46 RuminatingDrake #9407  4.433,4.912
US Y  9.345s 2023-05-06 04:53 Martinez559 #9408  4.466,4.879
IL Y  9.345s 2023-05-14 04:17 RoiPvp #9409  4.450,4.895
IQ Y  9.345s 2023-05-18 23:18 ReRe #9410  4.450,4.895
US Y  9.345s 2023-05-20 14:18 Champ #9411  4.433,4.912
FR N  9.345s 2023-05-23 08:05 Nathanlethuga93 #9412  4.433,4.912
IE Y  9.345s 2023-05-27 13:16 LCPistachio #9413  4.416,4.929
US Y  9.345s 2023-05-30 02:26 mrmotion #9414  4.400,4.945
FR Y  9.345s 2023-06-01 09:45 Trinsyy #9415  4.516,4.829
US Y  9.345s 2023-06-05 23:28 cqs #9416  4.516,4.829
FR N  9.345s 2023-06-20 17:50 Lily #9417  4.500,4.845
US N  9.345s 2023-06-20 20:05 MooseOnMyRink #9418  4.500,4.845
DE Y  9.345s 2023-06-29 16:37 Bananensaft #9419  4.466,4.879
US Y  9.345s 2023-07-01 05:10 Rexy #9420  4.466,4.879
CA Y  9.345s 2023-07-03 19:34 hunter #9421  4.466,4.879
IL Y  9.345s 2023-07-11 15:55 HotDog #9422  4.450,4.895
FR Y  9.345s 2023-07-13 00:14 Maxence #9423  4.466,4.879
IL Y  9.345s 2023-07-14 22:08 baba #9424  4.450,4.895
GB N  9.345s 2023-07-19 07:57 Guest2027 #9425  4.516,4.829
GB N  9.345s 2023-07-22 11:26 joe the goose #9426  4.450,4.895
US Y  9.345s 2023-07-22 18:47 Jackson #9427  4.466,4.879
HR Y  9.345s 2023-08-05 11:16 djinopro #9428  4.433,4.912
SE N  9.345s 2023-08-05 18:26 TTTripp #9429  4.483,4.862
US Y  9.345s 2023-08-05 18:56 Wizard #9430  4.450,4.895
SI Y  9.345s 2023-08-08 15:45 Leja94 #9431  4.416,4.929
AR Y  9.345s 2023-08-11 18:37 MEMESLOL #9432  4.433,4.912
VN Y  9.345s 2023-08-16 15:50 UntouchableCut3 #9433  4.433,4.912
US Y  9.345s 2023-08-28 17:32 Dasnakezzzzzz #9434  4.500,4.845
US Y  9.345s 2023-09-02 00:26 Guest1536 #9435  4.466,4.879
RO Y  9.345s 2023-09-02 17:27 PoeticalBasebal #9436  4.466,4.879
US Y  9.345s 2023-09-06 23:38 Xaolity #9437  4.433,4.912
US Y  9.345s 2023-09-07 00:09 Xshoot #9438  4.466,4.879
FI N  9.345s 2023-09-18 18:43 Jemppu3987 #9439  4.466,4.879
FI N  9.345s 2023-09-23 13:22 Pika #9440  4.483,4.862
RS Y  9.345s 2023-10-07 14:49 SensibleAssocia #9441  4.400,4.945
DE Y  9.345s 2023-10-07 16:33 MasterMarvin #9442  4.450,4.895
SE Y  9.345s 2023-10-11 15:36 Burrisen #9443  4.433,4.912
US Y  9.345s 2023-10-18 16:24 nigeys #9444  4.483,4.862
NO Y  9.345s 2023-10-26 21:10 soldialove #9445  4.400,4.945
US Y  9.345s 2023-10-28 19:29 fishie #9446  4.466,4.879
US Y  9.345s 2023-11-14 19:24 Guest3651 #9447  4.466,4.879
BE Y  9.345s 2023-11-20 18:30 twelf #9448  4.450,4.895
US Y  9.345s 2023-11-22 03:06 Vanii #9449  4.466,4.879
UA Y  9.345s 2023-12-06 14:10 prto4kin232 #9450  4.450,4.895
PL Y  9.345s 2023-12-09 21:09 GG Ryzyy #9451  4.550,4.795
SG N  9.345s 2023-12-15 00:02 Andydog1508 #9452  4.416,4.929
AU Y  9.345s 2023-12-24 04:06 Swifthayz #9453  4.400,4.945
AU N  9.345s 2024-01-06 08:12 Guest3125 #9454  4.466,4.879
SE Y  9.345s 2024-01-06 08:24 Guest4677 #9455  4.483,4.862
FR Y  9.345s 2024-01-06 15:52 sixel #9456  4.483,4.862
NL N  9.345s 2024-01-06 18:12 Mors #9457  4.433,4.912
JO Y  9.345s 2024-01-07 18:57 Guest9338 #9458  4.566,4.779
CA Y  9.345s 2024-01-14 23:48 Fruv_ #9459  4.516,4.829
IL N  9.345s 2024-01-25 08:55 Speedrunner #9460  4.466,4.879
PL Y  9.345s 2024-01-27 16:46 kuna #9461  4.450,4.895
ES N  9.345s 2024-02-01 18:57 Emiryn #9462  4.416,4.929
NO Y  9.345s 2024-02-09 06:52 22TD22 #9463  4.450,4.895
GB Y  9.345s 2024-02-11 15:02 Will Just Will #9464  4.466,4.879
CH Y  9.345s 2024-02-14 21:56 Lurder1 #9465  4.466,4.879
US Y  9.345s 2024-02-22 16:13 Bean man #9466  4.500,4.845
LT N  9.345s 2024-03-02 16:20 THEAUGUSTAS ltu #9467  4.450,4.895
RS N  9.345s 2024-03-12 15:43 Splash #9468  4.500,4.845
FR Y  9.345s 2024-03-18 06:47 Kami230 #9469  4.450,4.895
US Y  9.345s 2024-03-23 20:46 caolina00 #9470  4.500,4.845
GB Y  9.345s 2024-04-10 18:09 ItzEthan #9471  4.416,4.929
CA Y  9.345s 2024-04-19 23:19 AndreiProEh #9472  4.500,4.845
FR Y  9.345s 2024-04-20 18:20 Zobuto #9473  4.433,4.912
PH Y  9.345s 2024-05-03 13:45 Zoediacbeats #9474  4.450,4.895
US N  9.345s 2024-05-06 00:50 Real #9475  4.466,4.879
RU Y  9.345s 2024-06-01 08:35 ggvp511 #9476  4.500,4.845
US Y  9.345s 2024-06-01 21:23 Guest6796 #9477  4.483,4.862
DK Y  9.345s 2024-06-02 06:09 AxoDia #9478  4.483,4.862
GR Y  9.345s 2024-06-02 07:04 strawTM #9479  4.450,4.895
CZ N  9.345s 2024-06-02 11:39 Guest6929 #9480  4.516,4.829
IE Y  9.345s 2024-06-05 17:43 bob #9481  4.500,4.845
DE Y  9.345s 2024-06-17 15:42 Jumanji_player #9482  4.483,4.862
DE N  9.345s 2024-07-09 14:48 SigMig #9483  4.350,4.995
US Y  9.345s 2024-07-13 03:51 SmasherHG2007 #9484  4.350,4.995
DE Y  9.345s 2024-07-22 19:51 xapaxlyst #9485  4.483,4.862
US Y  9.345s 2024-08-03 14:01 Wave is back! #9486  4.516,4.829
GB Y  9.345s 2024-08-03 14:23 aeRobbo #9487  4.466,4.879
SE Y  9.345s 2024-08-04 11:18 ooolollipop #9488  4.433,4.912
TR Y  9.345s 2024-08-10 11:51 KeaganeTR #9489  4.433,4.912
CA N  9.345s 2024-08-12 15:52 Guest9398 #9490  4.433,4.912
KZ Y  9.345s 2024-08-14 10:43 Destructor #9491  4.450,4.895
CA Y  9.345s 2024-09-08 21:39 StepBro-coli #9492  4.466,4.879
DK N  9.345s 2024-09-13 22:04 Gazcarrier1 #9493  4.500,4.845
US N  9.345s 2024-10-26 23:51 Abyss #9494  4.466,4.879
FR N  9.345s 2024-11-10 18:50 kirikou 1 2 3 #9495  4.500,4.845
BE N  9.345s 2024-11-28 20:38 GloppyToppy #9496  4.450,4.895
SG N  9.345s 2025-01-25 18:49 Oboros #9497  4.483,4.862
IT N  9.345s 2025-01-28 13:46 Schetty08 #9498  4.433,4.912
US N  9.345s 2025-03-04 01:31 dave #9499  4.450,4.895
NL N  9.345s 2025-03-07 20:55 Iligga #9500  4.466,4.879
AR Y  9.345s 2025-06-15 21:49 Lulo #9501  4.416,4.929
CA N  9.345s 2025-08-21 00:13 InfantileCap74 #9502  4.383,4.962
JP N  9.345s 2025-11-08 17:11 NorxLer #9503  4.400,4.945
CZ N  9.345s 2025-11-27 18:48 Herm1k-cz #9504  4.450,4.895
AU Y  9.345s 2025-12-18 11:44 90mh #9505  4.450,4.895
NL N  9.345s 2025-12-19 18:44 Istyaboy #9506  4.450,4.895
NL N  9.345s 2025-12-19 22:38 Guest9434 #9507  4.516,4.829
US Y  9.345s 2025-12-20 20:10 St. Ignatius of Antioch #9508  4.483,4.862
GE Y  9.345s 2025-12-20 21:57 ChestnutRhombus #9509  4.516,4.829
CZ Y  9.345s 2025-12-22 11:52 The Polda #9510  4.483,4.862
PL Y  9.345s 2026-01-22 15:59 Bonio #9511  4.450,4.895
RU N  9.345s 2026-01-31 10:11 grinner3663 #9512  4.500,4.845
FR N  9.345s 2026-02-04 12:04 sweetplane #9513  4.483,4.862
LU Y  9.345s 2026-02-04 18:57 tinky #9514  4.450,4.895
FR Y  9.345s 2026-02-10 20:51 R1Tempest #9515  4.450,4.895
JP N  9.345s 2026-02-12 17:06 自由 (^‿^) #9516  4.466,4.879
GR Y  9.345s 2026-02-16 08:31 DS #9517  4.450,4.895
CA Y  9.345s 2026-02-18 19:13 Goontard #9518  4.500,4.845
CA Y  9.345s 2026-03-05 05:13 Guest5816 #9519  4.450,4.895
CA Y  9.345s 2026-03-14 20:42 nuppington #9520  4.416,4.929
CA N  9.345s 2026-03-16 00:01 CloudGoddesss #9521  4.466,4.879
US Y  9.345s 2026-03-18 22:11 Pokos #9522  4.483,4.862
US Y  9.345s 2026-03-21 18:33 RedBlue #9523  4.450,4.895
GB N  9.345s 2026-03-22 14:50 rise¿ #9524  4.483,4.862
US Y  9.345s 2026-03-24 16:08 Thepickletoucher #9525  4.433,4.912
NL Y  9.345s 2026-03-24 17:46 Guest7282 #9526  4.433,4.912
HU Y  9.345s 2026-03-24 17:51 Seba_28 #9527  4.466,4.879
US Y  9.345s 2026-03-31 23:33 Usernames #9528  4.450,4.895
CL N  9.345s 2026-04-07 03:42 Zyrxs #9529  4.466,4.879
CZ N  9.345s 2026-04-09 10:27 Darbotopa #9530  4.550,4.795
PH Y  9.345s 2026-04-10 00:45 jurtte #9531  4.500,4.845
US Y  9.345s 2026-04-10 03:17 Guest5333 #9532  4.350,4.995
CA Y  9.345s 2026-04-13 18:39 Rusty2 #9533  4.433,4.912
DE Y  9.345s 2026-04-15 13:00 Tweenity #9534  4.483,4.862
BE N  9.345s 2026-04-17 14:56 scratch199491 #9535  4.433,4.912
ZA N  9.345s 2026-04-17 20:09 PuhDestroyer #9536  4.316,5.029
US Y  9.345s 2026-04-22 18:22 YeetMaster77 #9537  4.533,4.812
DE Y  9.345s 2026-05-04 13:59 Griddl #9538  4.450,4.895
ES Y  9.345s 2026-05-05 23:51 ikercio #9539  4.433,4.912
FR N  9.345s 2026-05-10 08:24 Murathors021 #9540  4.450,4.895
FR N  9.345s 2026-05-14 13:31 Velox #9541  4.466,4.879
VN Y  9.345s 2026-05-20 09:25 MonnoM #9542  4.483,4.862
TR Y  9.345s 2026-05-28 14:49 честь. #9543  4.433,4.912
IN N  9.345s 2026-06-08 09:24 mediance #9544  4.450,4.895
US Y  9.345s 2026-06-08 15:52 👾 Sir_Cat 👾 #9545  4.550,4.795
PL Y  9.345s 2026-06-09 20:35 Fiszka #9546  4.416,4.929
IT N  9.345s 2026-06-10 23:24 campione tunica #9547  4.550,4.795
HU Y  9.345s 2026-06-11 15:37 Cuci #9548  4.433,4.912
US Y  9.345s 2026-06-14 21:30 Xaqn #9549  4.450,4.895
IL Y  9.345s 2026-06-17 08:23 Easy1Master #9550  4.483,4.862
GE Y  9.345s 2026-07-09 14:00 LeggedForum108 #9551  4.433,4.912
US Y  9.345s 2026-07-10 17:49 wq1fle #9552  4.450,4.895
GE Y  9.345s 2026-07-11 08:33 Archibald #9553  4.533,4.812
PL Y  9.345s 2026-07-11 15:57 DYKRAKEN #9554  4.433,4.912
ES Y  9.345s 2026-07-15 15:41 Phøbic #9555  4.600,4.745
AT Y  9.345s 2026-08-01 16:01 uzatma #9556  4.483,4.862
PL Y  9.345s 2026-08-03 16:33 djjcdbjd #9557  4.383,4.962
SI Y  9.345s 2026-08-06 14:14 GP #9558  4.450,4.895
GB Y  9.345s 2026-08-08 14:26 Raster #9559  4.433,4.912
SE Y  9.345s 2026-08-10 15:39 MFL CASH #9560  4.400,4.945
US Y  9.345s 2026-08-20 17:16 Mqvdds #9561  4.433,4.912
TN Y  9.345s 2026-08-29 01:14 Guest7360 #9562  4.466,4.879
MN N  9.346s 2022-12-12 04:13 Ggbor #9563  4.433,4.913
PL Y  9.346s 2023-11-21 08:57 Charlie_BMW #9564  4.366,4.980
CA N  9.346s 2024-09-07 16:37 Guest3865 #9565  4.366,4.980
BE N  9.346s 2024-12-03 20:06 DoanV #9566  4.466,4.880
US N  9.346s 2025-08-25 01:47 ultrogmr #9567  4.383,4.963
JP Y  9.346s 2026-01-19 10:22 ばなな #9568  4.466,4.880
VN N  9.360s 2022-12-13 18:09 MarzipanFire323 #9569  4.483,4.877
DK N  9.360s 2022-12-23 16:30 AdorableColony1 #9570  4.483,4.877
CA N  9.360s 2023-05-02 14:27 im very good #9571  4.450,4.910
SE Y  9.360s 2023-06-29 16:17 Lamorecoola #9572  4.400,4.960
NL Y  9.360s 2023-10-21 11:33 Guest1834 #9573  4.466,4.894
US Y  9.360s 2024-05-07 03:40 55 #9574  4.433,4.927
US Y  9.360s 2025-12-21 21:04 Guest4196 #9575  4.483,4.877
JP N  9.360s 2026-04-02 10:13 ただ青い海。 #9576  4.466,4.894
CH Y  9.360s 2026-05-24 19:48 Gobbolyno #9577  4.433,4.927
US N  9.360s 2026-06-15 23:35 Everlasting #9578  4.450,4.910
HU N  9.361s 2022-12-07 08:06 Milosgeci #9579  4.483,4.878
DK N  9.361s 2022-12-07 11:39 Handy #9580  4.433,4.928
LV Y  9.361s 2022-12-09 11:10 VoraciousSprite #9581  4.533,4.828
RS Y  9.361s 2022-12-09 17:12 PerkyNanobot367 #9582  4.400,4.961
DK Y  9.361s 2022-12-09 17:29 Guest7764 #9583  4.466,4.895
BR N  9.361s 2022-12-19 14:08 LeviAce37 #9584  4.466,4.895
TR Y  9.361s 2022-12-20 18:26 MERTBS999 #9585  4.466,4.895
LU N  9.361s 2023-03-12 12:31 jo x5 #9586  4.466,4.895
SE N  9.361s 2023-04-07 21:05 Guest3015 #9587  4.416,4.945
GB Y  9.361s 2023-08-04 21:18 ThankfulRendezv #9588  4.400,4.961
US Y  9.361s 2023-08-30 18:18 fortjit #9589  4.433,4.928
US N  9.361s 2023-11-30 21:53 Philly #9590  4.533,4.828
DE Y  9.361s 2024-01-06 17:29 Guest3090 #9591  4.466,4.895
PL Y  9.361s 2024-05-20 17:24 kencarson #9592  4.483,4.878
RO Y  9.361s 2024-08-10 02:43 Guest5320 #9593  4.450,4.911
AT N  9.361s 2025-02-26 15:28 LMG #9594  4.466,4.895
US N  9.361s 2025-03-23 23:39 FakeKoala #9595  4.350,5.011
HR Y  9.361s 2026-01-03 14:11 Guest8819 #9596  4.516,4.845
BE Y  9.361s 2026-01-06 21:24 EwoutCarton #9597  4.450,4.911
US Y  9.361s 2026-02-19 01:11 grayson #9598  4.433,4.928
BR Y  9.361s 2026-05-03 00:00 Nyk102 #9599  4.500,4.861
DK N  9.361s 2026-08-02 11:18 Guest6964 #9600  4.316,5.045
NL Y  9.361s 2026-08-11 21:11 Guest3086 #9601  4.533,4.828
BR Y  9.362s 2022-10-11 00:55 DSTgames #9602  4.466,4.896
MY Y  9.362s 2022-10-11 01:26 Hamizannaruto #9603  4.416,4.946
US Y  9.362s 2022-10-11 02:34 Lil nav #9604  4.466,4.896
NZ Y  9.362s 2022-10-11 03:11 B1_STEWART #9605  4.433,4.929
AU Y  9.362s 2022-10-11 03:47 Chirnoffle #9606  4.466,4.896
NL Y  9.362s 2022-10-11 08:39 Matrix #9607  4.500,4.862
SE N  9.362s 2022-10-11 09:06 aethercot #9608  4.416,4.946
CL Y  9.362s 2022-12-07 04:51 iknacx #9609  4.433,4.929
IL Y  9.362s 2022-12-07 06:18 Fester12goat #9610  4.450,4.912
KZ Y  9.362s 2022-12-07 06:38 Guest4317 #9611  4.433,4.929
TR Y  9.362s 2022-12-07 08:39 Elma #9612  4.466,4.896
AT N  9.362s 2022-12-07 09:36 Guest7858 #9613  4.450,4.912
FI Y  9.362s 2022-12-07 15:10 Mamamake5 #9614  4.433,4.929
FI Y  9.362s 2022-12-07 15:23 Guest3192 #9615  4.416,4.946
IL Y  9.362s 2022-12-08 13:41 sanlevka #9616  4.466,4.896
AT N  9.362s 2022-12-08 14:07 Guest9143 #9617  4.450,4.912
IL Y  9.362s 2022-12-08 14:11 NevoaniRoneel #9618  4.433,4.929
CL Y  9.362s 2022-12-08 15:27 nacho faze #9619  4.450,4.912
SK Y  9.362s 2022-12-08 15:27 Burgirrrr #9620  4.483,4.879
DK N  9.362s 2022-12-08 17:14 Frysereje #9621  4.483,4.879
XK Y  9.362s 2022-12-08 17:59 88 #9622  4.450,4.912
GE N  9.362s 2022-12-08 18:53 Guest9865 #9623  4.516,4.846
RS Y  9.362s 2022-12-08 20:36 danilo brzina #9624  4.483,4.879
SK Y  9.362s 2022-12-09 06:24 SharkLeon12 #9625  4.433,4.929
FI N  9.362s 2022-12-09 07:55 Cloud #9626  4.466,4.896
ZA N  9.362s 2022-12-09 10:02 Guest3914 #9627  4.466,4.896
UA Y  9.362s 2022-12-09 11:36 faodqwe #9628  4.466,4.896
HU N  9.362s 2022-12-09 16:53 vp I peter #9629  4.500,4.862
AT Y  9.362s 2022-12-09 17:31 ramona30101 #9630  4.400,4.962
RS Y  9.362s 2022-12-09 17:51 keva #9631  4.450,4.912
KR N  9.362s 2022-12-10 09:12 Guest6163 #9632  4.450,4.912
SI Y  9.362s 2022-12-10 12:46 Guest2584 #9633  4.516,4.846
KE Y  9.362s 2022-12-10 18:02 exopro3 #9634  4.483,4.879
HU Y  9.362s 2022-12-10 18:29 Squirell #9635  4.466,4.896
TR Y  9.362s 2022-12-10 19:33 Guest2236 #9636  4.450,4.912
CL Y  9.362s 2022-12-10 22:04 Guest9728 #9637  4.433,4.929
TT Y  9.362s 2022-12-11 00:45 Viqen #9638  4.483,4.879
ZW Y  9.362s 2022-12-11 02:59 Guest5026 #9639  4.466,4.896
ID Y  9.362s 2022-12-11 08:56 Yi #9640  4.483,4.879
MK Y  9.362s 2022-12-11 11:35 Kolo #9641  4.450,4.912
IL Y  9.362s 2022-12-11 13:33 Yaya CAM #9642  4.466,4.896
AL Y  9.362s 2022-12-11 15:52 tartarust1 #9643  4.433,4.929
IL N  9.362s 2022-12-11 16:39 Guest1437 #9644  4.450,4.912
GR Y  9.362s 2022-12-11 18:58 Guest3332 #9645  4.366,4.996
EG N  9.362s 2022-12-12 13:34 RowdyInexperien #9646  4.483,4.879
EE N  9.362s 2022-12-12 18:19 Kristjan Aleksa #9647  4.500,4.862
IE Y  9.362s 2022-12-12 18:56 MeanderingGoal3 #9648  4.483,4.879
RS Y  9.362s 2022-12-12 19:11 Guest7764 #9649  4.483,4.879
RU Y  9.362s 2022-12-12 19:34 sokoldwer911 #9650  4.483,4.879
FI N  9.362s 2022-12-13 06:35 Superlegend132 #9651  4.433,4.929
GE Y  9.362s 2022-12-13 13:15 Guest8746 #9652  4.466,4.896
BV Y  9.362s 2022-12-13 14:26 Vio #9653  4.500,4.862
MY Y  9.362s 2022-12-13 15:32 Guest1322 #9654  4.466,4.896
GT Y  9.362s 2022-12-13 19:55 Alejo_OwO #9655  4.450,4.912
HR Y  9.362s 2022-12-13 20:12 Guest1234 #9656  4.400,4.962
IN Y  9.362s 2022-12-14 13:28 Guest8272 #9657  4.383,4.979
FI N  9.362s 2022-12-14 14:08 RIO #9658  4.516,4.846
HR Y  9.362s 2022-12-14 15:28 OpportunePill54 #9659  4.416,4.946
HU Y  9.362s 2022-12-14 17:27 Oszkar14455 #9660  4.516,4.846
AE Y  9.362s 2022-12-14 18:12 Khaled10pro #9661  4.450,4.912
MD Y  9.362s 2022-12-15 10:43 ianooS #9662  4.433,4.929
GA Y  9.362s 2022-12-15 12:21 123headless #9663  4.433,4.929
DK Y  9.362s 2022-12-15 14:04 sune1900 #9664  4.500,4.862
DK Y  9.362s 2022-12-15 18:11 Guest5445 #9665  4.500,4.862
LT Y  9.362s 2022-12-16 04:55 tosloi #9666  4.416,4.946
HR N  9.362s 2022-12-16 08:44 CherryCricket96 #9667  4.466,4.896
PT Y  9.362s 2022-12-16 09:19 GabiHWY #9668  4.483,4.879
PT Y  9.362s 2022-12-16 11:49 JPneto1311 #9669  4.483,4.879
ZA Y  9.362s 2022-12-16 13:26 Mav #9670  4.433,4.929
XK Y  9.362s 2022-12-16 13:42 I smuti #9671  4.500,4.862
MN N  9.362s 2022-12-16 15:06 PerfectEmpire19 #9672  4.483,4.879
LB Y  9.362s 2022-12-16 17:25 QWitherXL #9673  4.516,4.846
HR Y  9.362s 2022-12-16 17:52 mimiNEMAmozak12 #9674  4.500,4.862
LT Y  9.362s 2022-12-16 19:27 drnvks_ #9675  4.433,4.929
MK Y  9.362s 2022-12-16 22:14 bigW #9676  4.450,4.912
NZ Y  9.362s 2022-12-16 23:11 Guest2454 #9677  4.433,4.929
SI Y  9.362s 2022-12-17 13:02 Zylo YT #9678  4.400,4.962
HU Y  9.362s 2022-12-17 13:33 MBoti09shark #9679  4.450,4.912
FI Y  9.362s 2022-12-17 14:59 Hiiri83 #9680  4.466,4.896
RS Y  9.362s 2022-12-17 17:32 Kiksmiks19 #9681  4.500,4.862
UA Y  9.362s 2022-12-17 18:11 vex3310 #9682  4.500,4.862
NZ N  9.362s 2022-12-18 09:00 Deez #9683  4.533,4.829
TR Y  9.362s 2022-12-18 12:42 Gewinner #9684  4.516,4.846
RS N  9.362s 2022-12-18 14:23 SadEngagement55 #9685  4.433,4.929
HR Y  9.362s 2022-12-18 16:05 drugarko #9686  4.466,4.896
MD Y  9.362s 2022-12-18 17:43 ImmuneBlindness #9687  4.483,4.879
BR N  9.362s 2022-12-18 23:24 xP4o #9688  4.466,4.896
ID N  9.362s 2022-12-19 00:23 StrmMdb #9689  4.416,4.946
NZ Y  9.362s 2022-12-19 06:24 Guest Dingle #9690  4.466,4.896
DK Y  9.362s 2022-12-19 07:01 Parrot #9691  4.383,4.979
TH Y  9.362s 2022-12-19 19:33 betsek #9692  4.483,4.879
CH Y  9.362s 2022-12-20 06:34 Guest3281 #9693  4.433,4.929
FI Y  9.362s 2022-12-20 16:18 Mambo #9694  4.466,4.896
SI Y  9.362s 2022-12-20 19:16 fish #9695  4.450,4.912
BR Y  9.362s 2022-12-20 22:12 baudelaire #9696  4.483,4.879
TH Y  9.362s 2022-12-21 06:59 L09 #9697  4.366,4.996
LV Y  9.362s 2022-12-21 13:30 Matissh #9698  4.483,4.879
TR Y  9.362s 2022-12-21 18:50 AxSe #9699  4.466,4.896
DK Y  9.362s 2022-12-21 21:22 Glitch #9700  4.466,4.896
BA Y  9.362s 2022-12-22 10:54 skuultroper #9701  4.483,4.879
LT N  9.362s 2022-12-22 13:48 Nznkas #9702  4.383,4.979
JO Y  9.362s 2022-12-22 15:51 Mystical #9703  4.400,4.962
IE N  9.362s 2022-12-22 19:59 Igubkuhuh #9704  4.466,4.896
JO Y  9.362s 2022-12-22 23:29 nabs #9705  4.483,4.879
FI N  9.362s 2022-12-23 00:15 Guest1315 #9706  4.450,4.912
IN N  9.362s 2022-12-23 10:24 Guest5876 #9707  4.500,4.862
NZ Y  9.362s 2022-12-23 21:42 Sk1_48 #9708  4.433,4.929
SI Y  9.362s 2022-12-24 15:42 DizzyDizzy1 #9709  4.400,4.962
OM Y  9.362s 2022-12-24 17:05 Guest6478 #9710  4.466,4.896
GR Y  9.362s 2022-12-24 19:00 giannokefalo #9711  4.483,4.879
BD N  9.362s 2022-12-25 13:38 Sanjy #9712  4.433,4.929
NZ Y  9.362s 2022-12-26 09:35 Tein17 #9713  4.466,4.896
CH Y  9.362s 2022-12-27 00:29 Tetas #9714  4.433,4.929
PT Y  9.362s 2022-12-28 22:41 grossinho2006 #9715  4.516,4.846
IE Y  9.362s 2022-12-29 14:43 AdroitRecess37 #9716  4.466,4.896
BE Y  9.362s 2023-01-04 00:14 Jeffrey2408 #9717  4.400,4.962
US Y  9.362s 2023-01-04 03:43 VocalWind18 #9718  4.400,4.962
IE Y  9.362s 2023-01-19 19:21 VestedChicken38 #9719  4.450,4.912
ID Y  9.362s 2023-01-31 05:21 GSung #9720  4.483,4.879
IL Y  9.362s 2023-01-31 08:25 Itamar67 #9721  4.450,4.912
GR Y  9.362s 2023-02-05 08:49 CrazyJim28 #9722  4.483,4.879
CZ Y  9.362s 2023-02-08 18:40 stepkys #9723  4.483,4.879
US N  9.362s 2023-02-09 21:02 Guest3652 #9724  4.433,4.929
US Y  9.362s 2023-02-10 00:47 Oliver #9725  4.450,4.912
US Y  9.362s 2023-02-10 13:11 Bojiggy #9726  4.583,4.779
HR N  9.362s 2023-02-10 17:17 LovroD77359 #9727  4.450,4.912
US Y  9.362s 2023-02-11 15:29 ACESharp #9728  4.400,4.962
FR Y  9.362s 2023-02-11 16:55 Supermarzo #9729  4.433,4.929
FR N  9.362s 2023-03-10 06:09 RithyFleta #9730  4.450,4.912
NL N  9.362s 2023-03-10 06:44 L if you lose #9731  4.516,4.846
DK N  9.362s 2023-03-19 08:02 Skillissiue123 #9732  4.433,4.929
US N  9.362s 2023-03-21 20:19 B1023swim #9733  4.483,4.879
US N  9.362s 2023-03-24 06:53 Guest4087 #9734  4.483,4.879
GB Y  9.362s 2023-04-05 10:44 Th3d4N73 #9735  4.516,4.846
FR N  9.362s 2023-04-09 13:07 Stefano #9736  4.483,4.879
US N  9.362s 2023-04-10 15:24 Euphro #9737  4.433,4.929
PT Y  9.362s 2023-04-11 01:21 soperprogalatic #9738  4.516,4.846
GB N  9.362s 2023-04-11 16:29 Guest7050 #9739  4.433,4.929
GB N  9.362s 2023-04-17 15:30 warlock #9740  4.466,4.896
US N  9.362s 2023-04-24 19:04 Buba #9741  4.533,4.829
MY N  9.362s 2023-04-26 14:34 proepikmanalive #9742  4.516,4.846
GB Y  9.362s 2023-05-05 18:21 B_e_r_t_i_e #9743  4.416,4.946
GB Y  9.362s 2023-05-07 12:31 Toes #9744  4.466,4.896
GR Y  9.362s 2023-05-07 20:34 IncredibleGalax #9745  4.483,4.879
RU Y  9.362s 2023-05-09 08:23 sups #9746  4.500,4.862
BR N  9.362s 2023-05-11 15:07 shadow #9747  4.500,4.862
IN Y  9.362s 2023-05-14 15:00 Bullet4780 #9748  4.483,4.879
ES Y  9.362s 2023-05-15 13:22 miquel #9749  4.516,4.846
FI N  9.362s 2023-05-20 07:40 Awardtetris #9750  4.450,4.912
IN N  9.362s 2023-05-28 14:31 chirstanoronold #9751  4.383,4.979
FR Y  9.362s 2023-06-01 16:59 Lou #9752  4.483,4.879
US Y  9.362s 2023-06-05 16:42 Nickelis1 #9753  4.433,4.929
TR Y  9.362s 2023-06-19 21:13 poyrazb #9754  4.450,4.912
US Y  9.362s 2023-07-01 03:29 Quan #9755  4.450,4.912
BE Y  9.362s 2023-07-01 06:15 Iznouille #9756  4.416,4.946
US Y  9.362s 2023-07-17 23:33 hollowvessel94 #9757  4.383,4.979
US N  9.362s 2023-07-19 21:06 Guest8928 #9758  4.450,4.912
CH N  9.362s 2023-08-04 19:13 KingofStetten #9759  4.516,4.846
US Y  9.362s 2023-08-05 04:06 dabast2554 #9760  4.466,4.896
AU N  9.362s 2023-08-22 02:11 nina #9761  4.433,4.929
FR Y  9.362s 2023-08-25 06:19 BreizhRenegade #9762  4.383,4.979
NL Y  9.362s 2023-09-02 16:25 Jobee #9763  4.483,4.879
FR Y  9.362s 2023-09-04 20:05 Minoreex #9764  4.533,4.829
US Y  9.362s 2023-09-17 17:27 Parker10131 #9765  4.433,4.929
DK Y  9.362s 2023-09-19 13:39 DominatingDocto #9766  4.466,4.896
US Y  9.362s 2023-10-07 01:19 KFC chicken #9767  4.483,4.879
UA N  9.362s 2023-10-07 14:26 PoeticalSarcasm #9768  4.483,4.879
BR Y  9.362s 2023-10-12 17:49 Nizael Andrade #9769  4.533,4.829
IT Y  9.362s 2023-10-12 18:25 CreativeBruiser #9770  4.400,4.962
SK Y  9.362s 2023-10-14 21:40 0bs1d washed #9771  4.500,4.862
ES N  9.362s 2023-10-16 15:58 Jorjoelman #9772  4.466,4.896
SE Y  9.362s 2023-10-28 16:02 Diddelo15 #9773  4.466,4.896
PL Y  9.362s 2023-11-08 07:28 XxenonfoxX #9774  4.433,4.929
AU Y  9.362s 2023-11-08 10:32 L bozo #9775  4.483,4.879
MN Y  9.362s 2023-11-14 08:22 deleted user #9776  4.550,4.812
SE Y  9.362s 2023-11-21 21:00 elviramw #9777  4.466,4.896
US N  9.362s 2023-12-03 05:53 Guest2592 #9778  4.400,4.962
HR Y  9.362s 2023-12-09 12:25 Go Remzzy Go #9779  4.500,4.862
RO Y  9.362s 2023-12-13 09:11 theblazed #9780  4.416,4.946
AU Y  9.362s 2023-12-24 00:42 Guest4337 #9781  4.400,4.962
DE N  9.362s 2023-12-31 00:18 Guest8517 #9782  4.450,4.912
CZ N  9.362s 2024-01-07 07:28 Guest8148 #9783  4.483,4.879
NL Y  9.362s 2024-01-07 14:49 haha_easy #9784  4.400,4.962
JP N  9.362s 2024-01-15 01:09 Reiruma #9785  4.466,4.896
FR Y  9.362s 2024-01-22 16:01 ArcanFox #9786  4.383,4.979
US N  9.362s 2024-01-23 12:12 Progamer11 #9787  4.466,4.896
AT Y  9.362s 2024-01-30 08:18 Guest4801 #9788  4.433,4.929
US Y  9.362s 2024-02-02 01:56 Beanskinz #9789  4.550,4.812
BR N  9.362s 2024-02-05 21:29 Dosjfjdfjfjgifj #9790  4.433,4.929
MY Y  9.362s 2024-02-06 10:45 R1e #9791  4.483,4.879
LT N  9.362s 2024-02-09 07:45 Guest3069 #9792  4.483,4.879
US Y  9.362s 2024-02-10 15:26 Azerty99 #9793  4.466,4.896
DE Y  9.362s 2024-02-14 10:25 Guest4091 #9794  4.433,4.929
US Y  9.362s 2024-02-29 00:49 Kasedoitdabest #9795  4.483,4.879
GB Y  9.362s 2024-03-03 22:36 ParalleX #9796  4.483,4.879
FR N  9.362s 2024-03-05 20:51 Jollyclub #9797  4.433,4.929
US Y  9.362s 2024-03-07 00:05 BigD #9798  4.500,4.862
RU Y  9.362s 2024-03-12 09:23 KORMAN #9799  4.450,4.912
US N  9.362s 2024-03-12 20:54 Guest1704 #9800  4.433,4.929
TH Y  9.362s 2024-03-31 02:05 Taxfraud #9801  4.516,4.846
US Y  9.362s 2024-03-31 04:17 easy #9802  4.466,4.896
GB Y  9.362s 2024-04-06 04:19 nate-endo #9803  4.566,4.796
GB Y  9.362s 2024-04-07 15:53 eleven #9804  4.516,4.846
CZ Y  9.362s 2024-05-08 10:32 Aqix #9805  4.516,4.846
US Y  9.362s 2024-05-12 20:21 moondots #9806  4.483,4.879
LV Y  9.362s 2024-05-15 12:36 dr nova #9807  4.500,4.862
US N  9.362s 2024-05-18 08:55 Guest3905 #9808  4.500,4.862
DE Y  9.362s 2024-06-01 07:43 IbinderRobi1 #9809  4.450,4.912
BE Y  9.362s 2024-06-02 19:03 Frites 🍟🐶 #9810  4.466,4.896
FR Y  9.362s 2024-06-04 10:56 Guillotin69 #9811  4.533,4.829
MV Y  9.362s 2024-06-06 06:43 Trixent #9812  4.516,4.846
CA Y  9.362s 2024-06-20 18:42 Temple #9813  4.383,4.979
GB N  9.362s 2024-06-26 20:23 Robbo #9814  4.500,4.862
CR Y  9.362s 2024-08-01 00:50 Void_Unknown #9815  4.416,4.946
RU N  9.362s 2024-08-03 05:41 Cteklyaxa #9816  4.450,4.912
US Y  9.362s 2024-08-04 03:42 Terry #9817  4.483,4.879
FI Y  9.362s 2024-08-06 07:19 vilho #9818  4.500,4.862
VN Y  9.362s 2024-08-09 16:56 BunaufaHD #9819  4.466,4.896
AU Y  9.362s 2024-08-11 03:26 r_perkins_ #9820  4.433,4.929
NL Y  9.362s 2024-08-11 14:00 Moongoddess #9821  4.433,4.929
MK N  9.362s 2024-09-11 16:01 Dizzeh #9822  4.450,4.912
FI N  9.362s 2024-10-01 20:00 samu #9823  4.400,4.962
FI N  9.362s 2024-10-09 06:48 Nuru #9824  4.466,4.896
MK N  9.362s 2024-10-16 19:45 Guest2889 #9825  4.466,4.896
RO N  9.362s 2024-10-20 14:54 Guest3535 #9826  4.450,4.912
SE N  9.362s 2024-10-29 12:07 Guest1122 #9827  4.516,4.846
LU N  9.362s 2024-11-12 20:08 Meow :3 #9828  4.483,4.879
LT N  9.362s 2024-11-25 14:20 ErnasGG2.0 #9829  4.500,4.862
BE N  9.362s 2024-11-27 11:01 Guest3787 #9830  4.366,4.996
US N  9.362s 2024-11-29 14:18 Tim #9831  4.466,4.896
AU N  9.362s 2024-11-30 04:46 314159mt #9832  4.483,4.879
NL N  9.362s 2024-12-06 20:42 Jack #9833  4.416,4.946
NL N  9.362s 2024-12-25 13:21 Remeberdafender #9834  4.450,4.912
IT N  9.362s 2024-12-28 21:10 Gioele❤️ #9835  4.433,4.929
AU N  9.362s 2025-01-30 02:39 SussyGussy123 #9836  4.516,4.846
BG N  9.362s 2025-02-26 09:30 nasko_534 #9837  4.466,4.896
DE N  9.362s 2025-03-22 15:19 bananajoe #9838  4.433,4.929
ES N  9.362s 2025-04-20 18:57 Lauraa #9839  4.433,4.929
JP N  9.362s 2025-05-27 16:20 macaron #9840  4.500,4.862
KR N  9.362s 2025-06-03 10:00 ㅈㅇㅈ #9841  4.450,4.912
CA N  9.362s 2025-06-06 03:36 Fire_boi #9842  4.500,4.862
TR N  9.362s 2025-08-25 13:43 veryhide168 #9843  4.483,4.879
TR N  9.362s 2025-08-29 08:31 DreamerBoy #9844  4.550,4.812
CA N  9.362s 2025-10-13 19:53 ilaicash #9845  4.433,4.929
US N  9.362s 2025-12-22 02:06 💀🥱 #9846  4.466,4.896
DE Y  9.362s 2026-01-02 13:40 Guest6583 #9847  4.466,4.896
FI Y  9.362s 2026-01-12 14:15 KindredExpectation45 #9848  4.416,4.946
DE Y  9.362s 2026-01-14 12:39 Paul #9849  4.533,4.829
GB N  9.362s 2026-01-18 11:57 Guest8479 #9850  4.533,4.829
NL N  9.362s 2026-01-19 12:34 user woah ! #9851  4.483,4.879
FR Y  9.362s 2026-01-20 16:11 Alexss #9852  4.450,4.912
NL Y  9.362s 2026-02-03 20:38 Gerdo14s #9853  4.500,4.862
IT Y  9.362s 2026-02-08 20:22 Giacomo #9854  4.400,4.962
FR Y  9.362s 2026-02-11 14:30 Oakaeye #9855  4.533,4.829
NL Y  9.362s 2026-02-11 21:12 Lmntrix6131 #9856  4.500,4.862
NO Y  9.362s 2026-02-13 22:51 Gamer bro #9857  4.483,4.879
US Y  9.362s 2026-02-20 02:02 Guest7595 #9858  4.350,5.012
ES Y  9.362s 2026-03-07 14:54 Enaitz33 #9859  4.466,4.896
IT N  9.362s 2026-03-07 20:41 ||| #9860  4.533,4.829
FR N  9.362s 2026-03-09 16:37 Guest7647 #9861  4.416,4.946
US N  9.362s 2026-03-13 17:39 Guest2018 #9862  4.483,4.879
US Y  9.362s 2026-03-17 18:03 FelineCargo4930 #9863  4.550,4.812
SI N  9.362s 2026-04-03 15:35 metu1j #9864  4.483,4.879
GB Y  9.362s 2026-04-04 21:00 MehMacMeh #9865  4.433,4.929
GB Y  9.362s 2026-04-07 10:20 Rollington #9866  4.516,4.846
TW N  9.362s 2026-04-19 07:45 gua #9867  4.450,4.912
IN Y  9.362s 2026-04-19 14:03 bbxafl #9868  4.466,4.896
PL Y  9.362s 2026-04-25 14:20 Guest7788 #9869  4.500,4.862
FR N  9.362s 2026-04-25 19:52 Mathsoups #9870  4.550,4.812
SE Y  9.362s 2026-04-26 16:10 Guest4009 #9871  4.466,4.896
EG N  9.362s 2026-05-04 22:29 UnchangedWorkplace73 #9872  4.416,4.946
AU N  9.362s 2026-05-10 00:58 Veblossko #9873  4.483,4.879
FR Y  9.362s 2026-05-11 08:53 Francesco Sylvain #9874  4.500,4.862
RU Y  9.362s 2026-06-06 11:30 пиво2006 #9875  4.450,4.912
KR Y  9.362s 2026-06-07 14:39 ?¿? #9876  4.516,4.846
TR Y  9.362s 2026-06-07 15:51 27 #9877  4.450,4.912
CO Y  9.362s 2026-06-11 17:16 plasti22 #9878  4.466,4.896
NL Y  9.362s 2026-06-11 19:17 ˞˞exarchofswing #9879  4.500,4.862
US Y  9.362s 2026-06-14 07:00 molly #9880  4.566,4.796
TW N  9.362s 2026-06-15 08:19 我不是真冬 #9881  4.466,4.896
IT N  9.362s 2026-06-21 20:18 BiciVuota #9882  4.450,4.912
AU Y  9.362s 2026-07-06 11:13 jettyp #9883  4.450,4.912
FI N  9.362s 2026-07-08 00:13 HarmaaMursu #9884  4.466,4.896
US N  9.362s 2026-07-08 03:23 Core #9885  4.550,4.812
GB N  9.362s 2026-07-08 11:05 grng #9886  4.433,4.929
LT Y  9.362s 2026-07-08 19:51 Guest7625 #9887  4.433,4.929
SK Y  9.362s 2026-07-08 21:58 Xau #9888  4.466,4.896
DE Y  9.362s 2026-07-10 09:34 LordRehbein #9889  4.466,4.896
FR Y  9.362s 2026-07-15 14:21 spermbanni11 #9890  4.500,4.862
GB Y  9.362s 2026-07-19 22:05 Daithi | Ꝺaıꞇ̇ı #9891  4.466,4.896
GT Y  9.362s 2026-07-29 21:19 Chang #9892  4.516,4.846
US Y  9.362s 2026-08-01 17:51 renzo #9893  4.500,4.862
FR Y  9.362s 2026-08-04 21:16 El.3main #9894  4.400,4.962
CA Y  9.362s 2026-08-09 03:45 GigaGamer42 #9895  4.483,4.879
ZA Y  9.362s 2026-08-11 09:18 Skibidi Sigma 67 #9896  4.533,4.829
HK Y  9.362s 2026-08-18 09:28 fanfan #9897  4.416,4.946
IT Y  9.362s 2026-08-23 17:35 ester #9898  4.500,4.862
RO N  9.362s 2026-08-28 14:23 Ciorbă #9899  4.500,4.862
FI Y  9.363s 2022-12-19 14:25 jaakko #9900  4.433,4.930
RU N  9.363s 2024-09-19 12:48 NTikCSF:SalFourDaimPhoneX #9901  4.450,4.913
XK N  9.376s 2022-12-07 17:57 Guest6403 #9902  4.466,4.910
LV Y  9.376s 2022-12-18 07:47 DVD #9903  4.416,4.960
US N  9.376s 2024-07-06 23:14 vm 6666 #9904  4.450,4.926
IT N  9.376s 2024-11-02 10:28 Faby #9905  4.550,4.826
HK N  9.376s 2025-04-22 10:01 Azarick Arck #9906  4.550,4.826
JP N  9.376s 2025-10-06 16:07 ねこ最高! #9907  4.433,4.943
FR Y  9.376s 2026-05-05 22:32 tomtom #9908  4.466,4.910
SK N  9.377s 2022-12-08 14:23 Clasher4444L #9909  4.483,4.894
DE Y  9.377s 2023-10-07 15:43 Lol #9910  4.366,5.011
CA N  9.377s 2025-09-11 18:57 Crusted Come #9911  4.466,4.911
US Y  9.378s 2022-10-11 02:11 Guest1637 #9912  4.400,4.978
PL Y  9.378s 2022-10-11 05:50 JUZ0 #9913  4.500,4.878
RU Y  9.378s 2022-10-11 08:12 Lil Dozhd #9914  4.483,4.895
IL Y  9.378s 2022-10-11 09:19 Alon1 #9915  4.516,4.862
US N  9.378s 2022-10-11 09:23 Kim Dokja #9916  4.533,4.845
JP Y  9.378s 2022-12-07 04:47 SL_LIGHT #9917  4.466,4.912
BA Y  9.378s 2022-12-07 06:50 Sranje #9918  4.466,4.912
LT Y  9.378s 2022-12-07 09:55 dick #9919  4.433,4.945
IL Y  9.378s 2022-12-07 09:56 Aranor123 #9920  4.366,5.012
CH Y  9.378s 2022-12-07 15:04 Sus mabit #9921  4.466,4.912
AL Y  9.378s 2022-12-07 15:57 Guest6161 #9922  4.566,4.812
IL N  9.378s 2022-12-07 16:48 nana a banana #9923  4.433,4.945
DK Y  9.378s 2022-12-07 18:44 Guest4574 #9924  4.483,4.895
SK N  9.378s 2022-12-08 07:55 xd_Nina_xd #9925  4.466,4.912
HR N  9.378s 2022-12-08 12:11 KpsKacoXD #9926  4.466,4.912
MN Y  9.378s 2022-12-08 12:23 SoyoSob #9927  4.516,4.862
FI Y  9.378s 2022-12-08 15:43 dogi #9928  4.433,4.945
ZA Y  9.378s 2022-12-08 17:40 CRYTOG3N #9929  4.450,4.928
BR N  9.378s 2022-12-08 18:15 chichi #9930  4.516,4.862
LB Y  9.378s 2022-12-08 19:40 youssefatab #9931  4.416,4.962
FI N  9.378s 2022-12-08 20:36 HotAlliance2471 #9932  4.466,4.912
CH Y  9.378s 2022-12-08 20:54 Black_fish30776 #9933  4.466,4.912
KZ Y  9.378s 2022-12-09 04:27 ChICkEnBroys10 #9934  4.483,4.895
RU Y  9.378s 2022-12-09 12:36 VELIKI #9935  4.516,4.862
PH Y  9.378s 2022-12-09 13:33 OligarchQuagga1 #9936  4.433,4.945
BR Y  9.378s 2022-12-09 17:12 Hunter #9937  4.483,4.895
DK Y  9.378s 2022-12-09 17:19 BitterMeal23 #9938  4.433,4.945
KZ Y  9.378s 2022-12-10 06:32 xLarkMx #9939  4.416,4.962
CH Y  9.378s 2022-12-10 10:32 PuzzledLord1902 #9940  4.450,4.928
IL Y  9.378s 2022-12-10 12:48 mikotheking #9941  4.433,4.945
RS Y  9.378s 2022-12-10 13:53 GratefulGorilla #9942  4.483,4.895
HU Y  9.378s 2022-12-10 15:38 KornelHun #9943  4.500,4.878
LV Y  9.378s 2022-12-10 20:06 Domus #9944  4.483,4.895
IN Y  9.378s 2022-12-11 05:24 A1c4tra2 #9945  4.466,4.912
RU Y  9.378s 2022-12-11 08:40 Mefoedik #9946  4.500,4.878
ID Y  9.378s 2022-12-11 09:11 HeyGarcello #9947  4.450,4.928
IN Y  9.378s 2022-12-11 13:31 ArmedYak1018 #9948  4.483,4.895
RU Y  9.378s 2022-12-11 19:57 Agal #9949  4.466,4.912
LT Y  9.378s 2022-12-12 05:40 Guest3905 #9950  4.400,4.978
BG Y  9.378s 2022-12-12 11:14 Alex2610xd #9951  4.500,4.878
UA Y  9.378s 2022-12-12 11:44 Yona #9952  4.400,4.978
HU N  9.378s 2022-12-12 13:56 CourageousSpell #9953  4.500,4.878
GR Y  9.378s 2022-12-12 15:31 George is here #9954  4.516,4.862
AT Y  9.378s 2022-12-13 05:55 BlankLinkage26 #9955  4.500,4.878
FI Y  9.378s 2022-12-13 07:09 Guest6041 #9956  4.450,4.928
RU N  9.378s 2022-12-13 09:14 katvva #9957  4.483,4.895
UA Y  9.378s 2022-12-13 11:02 theeniik #9958  4.466,4.912
GR Y  9.378s 2022-12-13 12:00 keioss #9959  4.450,4.928
PT Y  9.378s 2022-12-13 21:40 StirCrazyOgre54 #9960  4.450,4.928
BG Y  9.378s 2022-12-14 10:58 LordaBG #9961  4.516,4.862
TR Y  9.378s 2022-12-14 15:24 PardonableLock5 #9962  4.416,4.962
LV Y  9.378s 2022-12-14 17:19 Guest7804 #9963  4.483,4.895
NZ Y  9.378s 2022-12-14 17:36 Lachie #9964  4.500,4.878
NZ Y  9.378s 2022-12-14 18:57 13 #9965  4.516,4.862
HR N  9.378s 2022-12-14 20:00 lukaa091 #9966  4.550,4.828
EE N  9.378s 2022-12-14 20:22 Andrey #9967  4.466,4.912
HR Y  9.378s 2022-12-15 07:56 STARDERPY #9968  4.466,4.912
UA Y  9.378s 2022-12-15 12:31 Taco #9969  4.466,4.912
LV N  9.378s 2022-12-15 16:44 EclecticMosasau #9970  4.400,4.978
GR Y  9.378s 2022-12-15 18:12 shrek #9971  4.483,4.895
IE Y  9.378s 2022-12-15 19:00 Guest2100 #9972  4.450,4.928
NZ N  9.378s 2022-12-15 19:02 Chad #9973  4.483,4.895
MX Y  9.378s 2022-12-15 21:07 GrimImpostor578 #9974  4.466,4.912
CH N  9.378s 2022-12-16 14:43 Guest4096 #9975  4.533,4.845
JO Y  9.378s 2022-12-17 07:03 itz_fariss #9976  4.433,4.945
EG Y  9.378s 2022-12-17 10:40 Chris #9977  4.416,4.962
JP Y  9.378s 2022-12-17 12:57 Hhshwhhw #9978  4.483,4.895
BG Y  9.378s 2022-12-17 17:41 recebo #9979  4.450,4.928
DK Y  9.378s 2022-12-17 20:04 Guest4405 #9980  4.500,4.878
LV Y  9.378s 2022-12-17 20:08 Guest5464 #9981  4.383,4.995
BR Y  9.378s 2022-12-17 20:13 Debruyn3MB #9982  4.550,4.828
FI Y  9.378s 2022-12-18 09:30 FriendlyGourmet #9983  4.450,4.928
LT Y  9.378s 2022-12-18 12:08 exoracernoob #9984  4.400,4.978
EG Y  9.378s 2022-12-18 14:08 MGllPenoo #9985  4.450,4.928
TH Y  9.378s 2022-12-18 16:04 faxnocaps #9986  4.500,4.878
UA N  9.378s 2022-12-18 21:43 markp456 #9987  4.516,4.862
TH N  9.378s 2022-12-19 01:40 ppgame140552 #9988  4.416,4.962
SI Y  9.378s 2022-12-20 08:52 hrovat224 #9989  4.433,4.945
EE Y  9.378s 2022-12-20 10:29 ragnarrokk09 #9990  4.516,4.862
FI Y  9.378s 2022-12-20 13:14 Aatu0 #9991  4.466,4.912
UA Y  9.378s 2022-12-20 17:59 Guest8886 #9992  4.483,4.895
SI Y  9.378s 2022-12-20 19:40 LanBrin #9993  4.450,4.928
UA Y  9.378s 2022-12-20 20:36 player001play #9994  4.450,4.928
ZA Y  9.378s 2022-12-21 08:30 Minimainhirn #9995  4.500,4.878
ZA Y  9.378s 2022-12-21 12:43 Spongylemonn958 #9996  4.450,4.928
RS Y  9.378s 2022-12-21 14:14 Guest1703 #9997  4.466,4.912
GR Y  9.378s 2022-12-22 08:38 panagio23 #9998  4.483,4.895
FI Y  9.378s 2022-12-22 08:41 DINOPYLLY #9999  4.500,4.878
CH N  9.378s 2022-12-22 11:56 I_Love_Dick #10000  4.500,4.878

Next page